sensor_id;sensor_type;location;lat;lon;timestamp;temperature;humidity
23081;DHT22;11708;50.570;8.532;2022-12-18T00:01:18;-5.80;99.90
23081;DHT22;11708;50.570;8.532;2022-12-18T00:03:44;-5.80;99.90
23081;DHT22;11708;50.570;8.532;2022-12-18T00:06:09;-5.80;99.90
23081;DHT22;11708;50.570;8.532;2022-12-18T00:08:35;-5.80;99.90
23081;DHT22;11708;50.570;8.532;2022-12-18T00:11:05;-5.80;99.90
23081;DHT22;11708;50.570;8.532;2022-12-18T00:13:32;-5.80;99.90
23081;DHT22;11708;50.570;8.532;2022-12-18T00:16:02;-5.80;99.90
23081;DHT22;11708;50.570;8.532;2022-12-18T00:18:29;-5.90;99.90
23081;DHT22;11708;50.570;8.532;2022-12-18T00:21:02;-5.90;99.90
23081;DHT22;11708;50.570;8.532;2022-12-18T00:23:28;-6.00;99.90
23081;DHT22;11708;50.570;8.532;2022-12-18T00:25:54;-6.00;99.90
23081;DHT22;11708;50.570;8.532;2022-12-18T00:28:20;-6.00;99.90
23081;DHT22;11708;50.570;8.532;2022-12-18T00:30:45;-6.10;99.90
23081;DHT22;11708;50.570;8.532;2022-12-18T00:33:11;-6.10;99.90
23081;DHT22;11708;50.570;8.532;2022-12-18T00:35:36;-5.90;99.90
23081;DHT22;11708;50.570;8.532;2022-12-18T00:38:02;-6.20;99.90
23081;DHT22;11708;50.570;8.532;2022-12-18T00:40:28;-6.20;99.90
23081;DHT22;11708;50.570;8.532;2022-12-18T00:42:53;-6.30;99.90
23081;DHT22;11708;50.570;8.532;2022-12-18T00:45:27;-6.30;99.90
23081;DHT22;11708;50.570;8.532;2022-12-18T00:47:54;-5.70;99.90
23081;DHT22;11708;50.570;8.532;2022-12-18T00:52:46;-6.40;99.90
23081;DHT22;11708;50.570;8.532;2022-12-18T00:55:12;-6.50;99.90
23081;DHT22;11708;50.570;8.532;2022-12-18T00:57:38;-6.50;99.90
23081;DHT22;11708;50.570;8.532;2022-12-18T01:00:07;-6.60;99.90
23081;DHT22;11708;50.570;8.532;2022-12-18T01:02:33;-6.60;99.90
23081;DHT22;11708;50.570;8.532;2022-12-18T01:04:59;-6.50;99.90
23081;DHT22;11708;50.570;8.532;2022-12-18T01:07:24;-6.70;99.90
23081;DHT22;11708;50.570;8.532;2022-12-18T01:09:50;-6.80;99.90
23081;DHT22;11708;50.570;8.532;2022-12-18T01:12:15;-6.90;99.90
23081;DHT22;11708;50.570;8.532;2022-12-18T01:14:44;-6.30;99.90
23081;DHT22;11708;50.570;8.532;2022-12-18T01:17:09;-7.00;99.90
23081;DHT22;11708;50.570;8.532;2022-12-18T01:19:35;-7.00;99.90
23081;DHT22;11708;50.570;8.532;2022-12-18T01:22:00;-7.00;99.90
23081;DHT22;11708;50.570;8.532;2022-12-18T01:24:26;-7.20;99.90
23081;DHT22;11708;50.570;8.532;2022-12-18T01:26:52;-7.20;99.90
23081;DHT22;11708;50.570;8.532;2022-12-18T01:29:17;-7.30;99.90
23081;DHT22;11708;50.570;8.532;2022-12-18T01:31:43;-7.20;99.90
23081;DHT22;11708;50.570;8.532;2022-12-18T01:34:09;-7.30;99.90
23081;DHT22;11708;50.570;8.532;2022-12-18T01:36:37;-7.20;99.90
23081;DHT22;11708;50.570;8.532;2022-12-18T01:39:08;-7.30;99.90
23081;DHT22;11708;50.570;8.532;2022-12-18T01:41:36;-7.40;99.90
23081;DHT22;11708;50.570;8.532;2022-12-18T01:47:35;-7.50;99.90
23081;DHT22;11708;50.570;8.532;2022-12-18T01:52:52;-7.60;99.90
23081;DHT22;11708;50.570;8.532;2022-12-18T01:55:22;-7.70;99.90
23081;DHT22;11708;50.570;8.532;2022-12-18T01:57:50;-7.40;99.90
23081;DHT22;11708;50.570;8.532;2022-12-18T02:00:20;-7.70;99.90
23081;DHT22;11708;50.570;8.532;2022-12-18T02:02:47;-7.80;99.90
23081;DHT22;11708;50.570;8.532;2022-12-18T02:05:15;-7.80;99.90
23081;DHT22;11708;50.570;8.532;2022-12-18T02:13:31;-7.90;99.90
23081;DHT22;11708;50.570;8.532;2022-12-18T02:16:18;-7.90;99.90
23081;DHT22;11708;50.570;8.532;2022-12-18T02:18:49;-7.90;99.90
23081;DHT22;11708;50.570;8.532;2022-12-18T02:21:33;-8.00;99.90
23081;DHT22;11708;50.570;8.532;2022-12-18T02:26:53;-8.00;99.90
23081;DHT22;11708;50.570;8.532;2022-12-18T02:29:34;-8.00;99.90
23081;DHT22;11708;50.570;8.532;2022-12-18T02:32:02;-8.10;99.90
23081;DHT22;11708;50.570;8.532;2022-12-18T02:34:31;-8.10;99.90
23081;DHT22;11708;50.570;8.532;2022-12-18T02:36:59;-8.10;99.90
23081;DHT22;11708;50.570;8.532;2022-12-18T02:39:27;-8.20;99.90
23081;DHT22;11708;50.570;8.532;2022-12-18T02:41:54;-8.20;99.90
23081;DHT22;11708;50.570;8.532;2022-12-18T02:44:20;-8.20;99.90
23081;DHT22;11708;50.570;8.532;2022-12-18T02:46:50;-7.60;99.90
23081;DHT22;11708;50.570;8.532;2022-12-18T02:49:42;-8.20;99.90
23081;DHT22;11708;50.570;8.532;2022-12-18T02:55:24;-8.30;99.90
23081;DHT22;11708;50.570;8.532;2022-12-18T03:00:47;-8.30;99.90
23081;DHT22;11708;50.570;8.532;2022-12-18T03:03:27;-8.40;99.90
23081;DHT22;11708;50.570;8.532;2022-12-18T03:08:33;-8.40;99.90
23081;DHT22;11708;50.570;8.532;2022-12-18T03:11:08;-8.40;99.90
23081;DHT22;11708;50.570;8.532;2022-12-18T03:13:54;-8.40;99.90
23081;DHT22;11708;50.570;8.532;2022-12-18T03:16:29;-8.40;99.90
23081;DHT22;11708;50.570;8.532;2022-12-18T03:18:58;-8.50;99.90
23081;DHT22;11708;50.570;8.532;2022-12-18T03:21:40;-8.50;99.90
23081;DHT22;11708;50.570;8.532;2022-12-18T03:24:08;-8.60;99.90
23081;DHT22;11708;50.570;8.532;2022-12-18T03:26:35;-8.60;99.90
23081;DHT22;11708;50.570;8.532;2022-12-18T03:32:04;-8.90;99.90
23081;DHT22;11708;50.570;8.532;2022-12-18T03:34:33;-8.80;99.90
23081;DHT22;11708;50.570;8.532;2022-12-18T03:37:03;-9.00;99.90
23081;DHT22;11708;50.570;8.532;2022-12-18T03:42:17;-8.80;99.90
23081;DHT22;11708;50.570;8.532;2022-12-18T03:50:17;-9.00;99.90
23081;DHT22;11708;50.570;8.532;2022-12-18T03:55:34;-8.90;99.90
23081;DHT22;11708;50.570;8.532;2022-12-18T03:58:02;-8.90;99.90
23081;DHT22;11708;50.570;8.532;2022-12-18T04:02:56;-8.90;99.90
23081;DHT22;11708;50.570;8.532;2022-12-18T04:05:24;-8.90;99.90
23081;DHT22;11708;50.570;8.532;2022-12-18T04:07:51;-9.00;99.90
23081;DHT22;11708;50.570;8.532;2022-12-18T04:10:22;-9.00;99.90
23081;DHT22;11708;50.570;8.532;2022-12-18T04:17:48;-9.00;99.90
23081;DHT22;11708;50.570;8.532;2022-12-18T04:25:07;-9.30;99.90
23081;DHT22;11708;50.570;8.532;2022-12-18T04:27:32;-9.10;99.90
23081;DHT22;11708;50.570;8.532;2022-12-18T04:29:58;-9.10;99.90
23081;DHT22;11708;50.570;8.532;2022-12-18T04:34:52;-9.00;99.90
23081;DHT22;11708;50.570;8.532;2022-12-18T04:37:18;-9.30;99.90
23081;DHT22;11708;50.570;8.532;2022-12-18T04:39:43;-9.00;99.90
23081;DHT22;11708;50.570;8.532;2022-12-18T04:42:09;-9.50;99.90
23081;DHT22;11708;50.570;8.532;2022-12-18T04:47:00;-9.20;99.90
23081;DHT22;11708;50.570;8.532;2022-12-18T04:49:26;-9.10;99.90
23081;DHT22;11708;50.570;8.532;2022-12-18T04:51:52;-9.20;99.90
23081;DHT22;11708;50.570;8.532;2022-12-18T04:54:18;-9.00;99.90
23081;DHT22;11708;50.570;8.532;2022-12-18T04:56:47;-9.20;99.90
23081;DHT22;11708;50.570;8.532;2022-12-18T04:59:15;-9.20;99.90
23081;DHT22;11708;50.570;8.532;2022-12-18T05:26:07;-9.40;99.90
23081;DHT22;11708;50.570;8.532;2022-12-18T05:28:34;-9.40;99.90
23081;DHT22;11708;50.570;8.532;2022-12-18T05:31:03;-9.40;99.90
23081;DHT22;11708;50.570;8.532;2022-12-18T05:33:31;-9.40;99.90
23081;DHT22;11708;50.570;8.532;2022-12-18T05:35:59;-9.40;99.90
23081;DHT22;11708;50.570;8.532;2022-12-18T05:38:32;-9.70;99.90
23081;DHT22;11708;50.570;8.532;2022-12-18T05:40:58;-9.40;99.90
23081;DHT22;11708;50.570;8.532;2022-12-18T05:43:25;-9.50;99.90
23081;DHT22;11708;50.570;8.532;2022-12-18T05:45:51;-9.40;99.90
23081;DHT22;11708;50.570;8.532;2022-12-18T05:48:18;-9.50;99.90
23081;DHT22;11708;50.570;8.532;2022-12-18T05:50:45;-9.50;99.90
23081;DHT22;11708;50.570;8.532;2022-12-18T05:53:12;-10.10;99.90
23081;DHT22;11708;50.570;8.532;2022-12-18T05:55:40;-9.50;99.90
23081;DHT22;11708;50.570;8.532;2022-12-18T05:58:07;-9.50;99.90
23081;DHT22;11708;50.570;8.532;2022-12-18T06:00:36;-9.50;99.90
23081;DHT22;11708;50.570;8.532;2022-12-18T06:03:06;-9.60;99.90
23081;DHT22;11708;50.570;8.532;2022-12-18T06:05:35;-9.60;99.90
23081;DHT22;11708;50.570;8.532;2022-12-18T06:17:46;-9.90;99.90
23081;DHT22;11708;50.570;8.532;2022-12-18T06:20:11;-9.50;99.90
23081;DHT22;11708;50.570;8.532;2022-12-18T06:56:47;-10.20;99.90
23081;DHT22;11708;50.570;8.532;2022-12-18T06:59:15;-9.90;99.90
23081;DHT22;11708;50.570;8.532;2022-12-18T07:13:52;-9.80;99.90
23081;DHT22;11708;50.570;8.532;2022-12-18T07:16:19;-9.80;99.90
23081;DHT22;11708;50.570;8.532;2022-12-18T07:21:14;-10.00;99.90
23081;DHT22;11708;50.570;8.532;2022-12-18T07:26:26;-9.80;99.90
23081;DHT22;11708;50.570;8.532;2022-12-18T07:28:55;-9.80;99.90
23081;DHT22;11708;50.570;8.532;2022-12-18T07:31:21;-9.80;99.90
23081;DHT22;11708;50.570;8.532;2022-12-18T07:33:47;-9.00;99.90
23081;DHT22;11708;50.570;8.532;2022-12-18T07:41:08;-9.80;99.90
23081;DHT22;11708;50.570;8.532;2022-12-18T07:46:01;-9.90;99.90
23081;DHT22;11708;50.570;8.532;2022-12-18T07:48:30;-9.80;99.90
23081;DHT22;11708;50.570;8.532;2022-12-18T07:51:00;-9.80;99.90
23081;DHT22;11708;50.570;8.532;2022-12-18T07:53:26;-9.80;99.90
23081;DHT22;11708;50.570;8.532;2022-12-18T07:55:59;-9.80;99.90
23081;DHT22;11708;50.570;8.532;2022-12-18T07:58:25;-9.80;99.90
23081;DHT22;11708;50.570;8.532;2022-12-18T08:00:51;-9.80;99.90
23081;DHT22;11708;50.570;8.532;2022-12-18T08:03:17;-9.60;99.90
23081;DHT22;11708;50.570;8.532;2022-12-18T08:05:43;-9.60;99.90
23081;DHT22;11708;50.570;8.532;2022-12-18T08:08:08;-9.60;99.90
23081;DHT22;11708;50.570;8.532;2022-12-18T08:10:34;-9.60;99.90
23081;DHT22;11708;50.570;8.532;2022-12-18T08:13:00;-9.60;99.90
23081;DHT22;11708;50.570;8.532;2022-12-18T08:15:25;-9.60;99.90
23081;DHT22;11708;50.570;8.532;2022-12-18T08:17:51;-9.60;99.90
23081;DHT22;11708;50.570;8.532;2022-12-18T08:20:16;-9.50;99.90
23081;DHT22;11708;50.570;8.532;2022-12-18T08:22:43;-9.50;99.90
23081;DHT22;11708;50.570;8.532;2022-12-18T08:25:09;-9.50;99.90
23081;DHT22;11708;50.570;8.532;2022-12-18T08:27:35;-9.40;99.90
23081;DHT22;11708;50.570;8.532;2022-12-18T08:30:02;-9.40;99.90
23081;DHT22;11708;50.570;8.532;2022-12-18T08:32:28;-9.40;99.90
23081;DHT22;11708;50.570;8.532;2022-12-18T08:34:53;-9.10;99.90
23081;DHT22;11708;50.570;8.532;2022-12-18T08:37:19;-9.40;99.90
23081;DHT22;11708;50.570;8.532;2022-12-18T08:39:45;-9.30;99.90
23081;DHT22;11708;50.570;8.532;2022-12-18T08:42:11;-9.30;99.90
23081;DHT22;11708;50.570;8.532;2022-12-18T08:44:55;-9.10;99.90
23081;DHT22;11708;50.570;8.532;2022-12-18T08:47:20;-9.10;99.90
23081;DHT22;11708;50.570;8.532;2022-12-18T08:49:46;-9.00;99.90
23081;DHT22;11708;50.570;8.532;2022-12-18T08:52:11;-9.00;99.90
23081;DHT22;11708;50.570;8.532;2022-12-18T08:54:37;-8.90;99.90
23081;DHT22;11708;50.570;8.532;2022-12-18T08:57:03;-8.90;99.90
23081;DHT22;11708;50.570;8.532;2022-12-18T09:01:54;-8.80;99.90
23081;DHT22;11708;50.570;8.532;2022-12-18T09:04:20;-8.80;99.90
23081;DHT22;11708;50.570;8.532;2022-12-18T09:06:46;-8.70;99.90
23081;DHT22;11708;50.570;8.532;2022-12-18T09:09:12;-8.70;99.90
23081;DHT22;11708;50.570;8.532;2022-12-18T09:11:37;-8.60;99.90
23081;DHT22;11708;50.570;8.532;2022-12-18T09:14:03;-8.40;99.90
23081;DHT22;11708;50.570;8.532;2022-12-18T09:16:32;-8.70;99.90
23081;DHT22;11708;50.570;8.532;2022-12-18T09:19:00;-8.40;99.90
23081;DHT22;11708;50.570;8.532;2022-12-18T09:21:28;-8.30;99.90
23081;DHT22;11708;50.570;8.532;2022-12-18T09:24:00;-8.20;99.90
23081;DHT22;11708;50.570;8.532;2022-12-18T09:26:26;-8.10;99.90
23081;DHT22;11708;50.570;8.532;2022-12-18T09:31:20;-7.80;99.90
23081;DHT22;11708;50.570;8.532;2022-12-18T09:33:46;-7.60;99.90
23081;DHT22;11708;50.570;8.532;2022-12-18T09:36:14;-7.50;99.90
23081;DHT22;11708;50.570;8.532;2022-12-18T09:38:42;-6.90;99.90
23081;DHT22;11708;50.570;8.532;2022-12-18T09:41:47;-7.10;99.90
23081;DHT22;11708;50.570;8.532;2022-12-18T09:44:41;-6.40;99.90
23081;DHT22;11708;50.570;8.532;2022-12-18T09:47:27;-6.50;99.90
23081;DHT22;11708;50.570;8.532;2022-12-18T09:50:03;-6.20;99.90
23081;DHT22;11708;50.570;8.532;2022-12-18T09:52:48;-6.00;99.90
23081;DHT22;11708;50.570;8.532;2022-12-18T09:55:30;-5.70;99.90
23081;DHT22;11708;50.570;8.532;2022-12-18T09:58:02;-5.60;99.90
23081;DHT22;11708;50.570;8.532;2022-12-18T10:00:29;-5.40;99.90
23081;DHT22;11708;50.570;8.532;2022-12-18T10:03:13;-5.30;99.90
23081;DHT22;11708;50.570;8.532;2022-12-18T10:06:05;-5.10;99.90
23081;DHT22;11708;50.570;8.532;2022-12-18T10:13:57;-4.40;99.90
23081;DHT22;11708;50.570;8.532;2022-12-18T10:19:20;-3.80;99.90
23081;DHT22;11708;50.570;8.532;2022-12-18T10:22:08;-3.90;99.90
23081;DHT22;11708;50.570;8.532;2022-12-18T10:25:03;-3.80;99.90
23081;DHT22;11708;50.570;8.532;2022-12-18T10:27:31;-3.60;99.90
23081;DHT22;11708;50.570;8.532;2022-12-18T10:29:57;-3.50;99.90
23081;DHT22;11708;50.570;8.532;2022-12-18T10:32:26;-3.30;99.90
23081;DHT22;11708;50.570;8.532;2022-12-18T10:34:57;-2.70;99.90
23081;DHT22;11708;50.570;8.532;2022-12-18T10:37:28;-3.00;99.90
23081;DHT22;11708;50.570;8.532;2022-12-18T10:42:32;-2.50;99.90
23081;DHT22;11708;50.570;8.532;2022-12-18T10:45:13;-2.10;99.90
23081;DHT22;11708;50.570;8.532;2022-12-18T10:47:47;-2.30;99.90
23081;DHT22;11708;50.570;8.532;2022-12-18T10:50:40;-2.30;99.90
23081;DHT22;11708;50.570;8.532;2022-12-18T10:53:05;-2.20;99.90
23081;DHT22;11708;50.570;8.532;2022-12-18T10:55:36;-2.30;99.90
23081;DHT22;11708;50.570;8.532;2022-12-18T11:00:41;-2.30;99.90
23081;DHT22;11708;50.570;8.532;2022-12-18T11:03:33;-2.30;99.90
23081;DHT22;11708;50.570;8.532;2022-12-18T11:06:07;-2.20;99.90
23081;DHT22;11708;50.570;8.532;2022-12-18T11:08:33;-2.10;99.90
23081;DHT22;11708;50.570;8.532;2022-12-18T11:10:59;-2.10;99.90
23081;DHT22;11708;50.570;8.532;2022-12-18T11:13:27;-2.10;99.90
23081;DHT22;11708;50.570;8.532;2022-12-18T11:15:53;-2.00;99.90
23081;DHT22;11708;50.570;8.532;2022-12-18T11:18:29;-2.10;99.90
23081;DHT22;11708;50.570;8.532;2022-12-18T11:21:09;-2.00;99.90
23081;DHT22;11708;50.570;8.532;2022-12-18T11:23:37;-2.00;99.90
23081;DHT22;11708;50.570;8.532;2022-12-18T11:26:09;-1.80;99.90
23081;DHT22;11708;50.570;8.532;2022-12-18T11:28:51;-1.70;99.90
23081;DHT22;11708;50.570;8.532;2022-12-18T11:31:28;-1.50;99.90
23081;DHT22;11708;50.570;8.532;2022-12-18T11:34:27;-1.50;99.90
23081;DHT22;11708;50.570;8.532;2022-12-18T11:36:54;-1.50;99.90
23081;DHT22;11708;50.570;8.532;2022-12-18T11:39:41;-1.50;99.90
23081;DHT22;11708;50.570;8.532;2022-12-18T11:44:51;-1.80;99.90
23081;DHT22;11708;50.570;8.532;2022-12-18T11:47:34;-1.60;99.90
23081;DHT22;11708;50.570;8.532;2022-12-18T11:50:45;-1.90;99.90
23081;DHT22;11708;50.570;8.532;2022-12-18T11:52:56;-1.90;99.90
23081;DHT22;11708;50.570;8.532;2022-12-18T11:55:39;-1.90;99.90
23081;DHT22;11708;50.570;8.532;2022-12-18T12:04:15;-1.70;99.90
23081;DHT22;11708;50.570;8.532;2022-12-18T12:07:09;-1.70;99.90
23081;DHT22;11708;50.570;8.532;2022-12-18T12:12:24;-1.60;99.90
23081;DHT22;11708;50.570;8.532;2022-12-18T12:17:54;-1.70;99.90
23081;DHT22;11708;50.570;8.532;2022-12-18T12:26:09;-1.60;99.90
23081;DHT22;11708;50.570;8.532;2022-12-18T12:31:27;-1.60;99.90
23081;DHT22;11708;50.570;8.532;2022-12-18T12:39:35;-1.50;99.90
23081;DHT22;11708;50.570;8.532;2022-12-18T12:42:04;-1.50;99.90
23081;DHT22;11708;50.570;8.532;2022-12-18T12:44:53;-1.30;99.90
23081;DHT22;11708;50.570;8.532;2022-12-18T12:47:29;-1.70;99.90
23081;DHT22;11708;50.570;8.532;2022-12-18T12:49:58;-1.60;99.90
23081;DHT22;11708;50.570;8.532;2022-12-18T12:52:36;-1.70;99.90
23081;DHT22;11708;50.570;8.532;2022-12-18T12:55:05;-2.10;99.90
23081;DHT22;11708;50.570;8.532;2022-12-18T12:57:39;-1.90;99.90
23081;DHT22;11708;50.570;8.532;2022-12-18T13:00:09;-2.00;99.90
23081;DHT22;11708;50.570;8.532;2022-12-18T13:05:54;-2.10;99.90
23081;DHT22;11708;50.570;8.532;2022-12-18T13:08:30;-2.20;99.90
23081;DHT22;11708;50.570;8.532;2022-12-18T13:10:57;-2.20;99.90
23081;DHT22;11708;50.570;8.532;2022-12-18T13:13:53;-2.20;99.90
23081;DHT22;11708;50.570;8.532;2022-12-18T13:16:22;-2.30;99.90
23081;DHT22;11708;50.570;8.532;2022-12-18T13:18:53;-2.30;99.90
23081;DHT22;11708;50.570;8.532;2022-12-18T13:21:25;-2.40;99.90
23081;DHT22;11708;50.570;8.532;2022-12-18T13:36:45;-2.80;99.90
23081;DHT22;11708;50.570;8.532;2022-12-18T13:41:44;-2.90;99.90
23081;DHT22;11708;50.570;8.532;2022-12-18T13:44:39;-3.00;99.90
23081;DHT22;11708;50.570;8.532;2022-12-18T13:47:31;-3.00;99.90
23081;DHT22;11708;50.570;8.532;2022-12-18T13:49:57;-3.10;99.90
23081;DHT22;11708;50.570;8.532;2022-12-18T13:52:37;-3.20;99.90
23081;DHT22;11708;50.570;8.532;2022-12-18T13:55:07;-3.20;99.90
23081;DHT22;11708;50.570;8.532;2022-12-18T13:57:39;-3.30;99.90
23081;DHT22;11708;50.570;8.532;2022-12-18T14:00:27;-3.30;99.90
23081;DHT22;11708;50.570;8.532;2022-12-18T14:02:54;-3.30;99.90
23081;DHT22;11708;50.570;8.532;2022-12-18T14:05:36;-3.40;99.90
23081;DHT22;11708;50.570;8.532;2022-12-18T14:08:10;-3.50;99.90
23081;DHT22;11708;50.570;8.532;2022-12-18T14:10:43;-3.40;99.90
23081;DHT22;11708;50.570;8.532;2022-12-18T14:13:10;-3.50;99.90
23081;DHT22;11708;50.570;8.532;2022-12-18T14:15:43;-3.50;99.90
23081;DHT22;11708;50.570;8.532;2022-12-18T14:20:52;-3.60;99.90
23081;DHT22;11708;50.570;8.532;2022-12-18T14:23:37;-3.50;99.90
23081;DHT22;11708;50.570;8.532;2022-12-18T14:26:20;-3.50;99.90
23081;DHT22;11708;50.570;8.532;2022-12-18T14:28:46;-3.50;99.90
23081;DHT22;11708;50.570;8.532;2022-12-18T14:31:24;-3.50;99.90
23081;DHT22;11708;50.570;8.532;2022-12-18T14:33:50;-3.60;99.90
23081;DHT22;11708;50.570;8.532;2022-12-18T14:36:20;-3.60;99.90
23081;DHT22;11708;50.570;8.532;2022-12-18T14:38:51;-3.60;99.90
23081;DHT22;11708;50.570;8.532;2022-12-18T14:41:18;-3.60;99.90
23081;DHT22;11708;50.570;8.532;2022-12-18T14:43:49;-3.60;99.90
23081;DHT22;11708;50.570;8.532;2022-12-18T14:49:32;-3.60;99.90
23081;DHT22;11708;50.570;8.532;2022-12-18T14:52:03;-3.60;99.90
23081;DHT22;11708;50.570;8.532;2022-12-18T14:54:30;-3.60;99.90
23081;DHT22;11708;50.570;8.532;2022-12-18T14:57:02;-3.60;99.90
23081;DHT22;11708;50.570;8.532;2022-12-18T14:59:32;-3.60;99.90
23081;DHT22;11708;50.570;8.532;2022-12-18T15:04:37;-3.50;99.90
23081;DHT22;11708;50.570;8.532;2022-12-18T15:07:15;-3.70;99.90
23081;DHT22;11708;50.570;8.532;2022-12-18T15:09:43;-3.70;99.90
23081;DHT22;11708;50.570;8.532;2022-12-18T15:13:24;-3.40;99.90
23081;DHT22;11708;50.570;8.532;2022-12-18T15:18:12;-3.70;99.90
23081;DHT22;11708;50.570;8.532;2022-12-18T15:23:29;-3.70;99.90
23081;DHT22;11708;50.570;8.532;2022-12-18T15:26:02;-3.70;99.90
23081;DHT22;11708;50.570;8.532;2022-12-18T15:28:35;-3.70;99.90
23081;DHT22;11708;50.570;8.532;2022-12-18T15:36:17;-3.70;99.90
23081;DHT22;11708;50.570;8.532;2022-12-18T15:38:48;-3.70;99.90
23081;DHT22;11708;50.570;8.532;2022-12-18T15:41:19;-3.70;99.90
23081;DHT22;11708;50.570;8.532;2022-12-18T15:43:46;-3.70;99.90
23081;DHT22;11708;50.570;8.532;2022-12-18T15:46:15;-3.70;99.90
23081;DHT22;11708;50.570;8.532;2022-12-18T15:48:46;-3.70;99.90
23081;DHT22;11708;50.570;8.532;2022-12-18T15:51:18;-3.70;99.90
23081;DHT22;11708;50.570;8.532;2022-12-18T15:53:46;-3.70;99.90
23081;DHT22;11708;50.570;8.532;2022-12-18T15:56:16;-3.20;99.90
23081;DHT22;11708;50.570;8.532;2022-12-18T15:59:01;-3.70;99.90
23081;DHT22;11708;50.570;8.532;2022-12-18T16:01:30;-3.80;99.90
23081;DHT22;11708;50.570;8.532;2022-12-18T16:03:56;-3.70;99.90
23081;DHT22;11708;50.570;8.532;2022-12-18T16:06:22;-3.70;99.90
23081;DHT22;11708;50.570;8.532;2022-12-18T16:08:48;-3.70;99.90
23081;DHT22;11708;50.570;8.532;2022-12-18T16:11:26;-3.70;99.90
23081;DHT22;11708;50.570;8.532;2022-12-18T16:14:05;-3.80;99.90
23081;DHT22;11708;50.570;8.532;2022-12-18T16:16:31;-3.80;99.90
23081;DHT22;11708;50.570;8.532;2022-12-18T16:18:59;-3.80;99.90
23081;DHT22;11708;50.570;8.532;2022-12-18T16:21:25;-3.80;99.90
23081;DHT22;11708;50.570;8.532;2022-12-18T16:23:50;-3.70;99.90
23081;DHT22;11708;50.570;8.532;2022-12-18T16:26:16;-4.10;99.90
23081;DHT22;11708;50.570;8.532;2022-12-18T16:28:41;-3.80;99.90
23081;DHT22;11708;50.570;8.532;2022-12-18T16:31:07;-3.90;99.90
23081;DHT22;11708;50.570;8.532;2022-12-18T16:33:33;-3.80;99.90
23081;DHT22;11708;50.570;8.532;2022-12-18T16:35:58;-3.70;99.90
23081;DHT22;11708;50.570;8.532;2022-12-18T16:38:24;-3.70;99.90
23081;DHT22;11708;50.570;8.532;2022-12-18T16:40:49;-3.60;99.90
23081;DHT22;11708;50.570;8.532;2022-12-18T16:43:34;-3.60;99.90
23081;DHT22;11708;50.570;8.532;2022-12-18T16:45:59;-3.60;99.90
23081;DHT22;11708;50.570;8.532;2022-12-18T16:48:25;-3.60;99.90
23081;DHT22;11708;50.570;8.532;2022-12-18T16:51:00;-3.60;99.90
23081;DHT22;11708;50.570;8.532;2022-12-18T16:53:27;-3.60;99.90
23081;DHT22;11708;50.570;8.532;2022-12-18T16:55:56;-3.60;99.90
23081;DHT22;11708;50.570;8.532;2022-12-18T16:58:22;-3.60;99.90
23081;DHT22;11708;50.570;8.532;2022-12-18T17:00:47;-3.60;99.90
23081;DHT22;11708;50.570;8.532;2022-12-18T17:03:13;-3.60;99.90
23081;DHT22;11708;50.570;8.532;2022-12-18T17:05:42;-3.60;99.90
23081;DHT22;11708;50.570;8.532;2022-12-18T17:08:07;-3.60;99.90
23081;DHT22;11708;50.570;8.532;2022-12-18T17:10:39;-3.50;99.90
23081;DHT22;11708;50.570;8.532;2022-12-18T17:13:04;-3.50;99.90
23081;DHT22;11708;50.570;8.532;2022-12-18T17:15:34;-3.50;99.90
23081;DHT22;11708;50.570;8.532;2022-12-18T17:20:25;-3.50;99.90
23081;DHT22;11708;50.570;8.532;2022-12-18T17:22:51;-3.50;99.90
23081;DHT22;11708;50.570;8.532;2022-12-18T17:25:16;-3.50;99.90
23081;DHT22;11708;50.570;8.532;2022-12-18T17:27:42;-3.50;99.90
23081;DHT22;11708;50.570;8.532;2022-12-18T17:30:14;-3.50;99.90
23081;DHT22;11708;50.570;8.532;2022-12-18T17:32:40;-3.50;99.90
23081;DHT22;11708;50.570;8.532;2022-12-18T17:35:05;-3.60;99.90
23081;DHT22;11708;50.570;8.532;2022-12-18T17:37:31;-3.50;99.90
23081;DHT22;11708;50.570;8.532;2022-12-18T17:39:57;-3.50;99.90
23081;DHT22;11708;50.570;8.532;2022-12-18T17:42:24;-3.50;99.90
23081;DHT22;11708;50.570;8.532;2022-12-18T17:44:51;-3.80;99.90
23081;DHT22;11708;50.570;8.532;2022-12-18T17:47:17;-3.50;99.90
23081;DHT22;11708;50.570;8.532;2022-12-18T17:49:43;-3.50;99.90
23081;DHT22;11708;50.570;8.532;2022-12-18T17:52:11;-3.50;99.90
23081;DHT22;11708;50.570;8.532;2022-12-18T17:54:37;-3.50;99.90
23081;DHT22;11708;50.570;8.532;2022-12-18T17:57:05;-3.60;99.90
23081;DHT22;11708;50.570;8.532;2022-12-18T17:59:31;-3.50;99.90
23081;DHT22;11708;50.570;8.532;2022-12-18T18:01:57;-3.50;99.90
23081;DHT22;11708;50.570;8.532;2022-12-18T18:04:23;-3.50;99.90
23081;DHT22;11708;50.570;8.532;2022-12-18T18:06:48;-3.50;99.90
23081;DHT22;11708;50.570;8.532;2022-12-18T18:09:14;-3.50;99.90
23081;DHT22;11708;50.570;8.532;2022-12-18T18:11:40;-3.50;99.90
23081;DHT22;11708;50.570;8.532;2022-12-18T18:14:24;-3.50;99.90
23081;DHT22;11708;50.570;8.532;2022-12-18T18:16:52;-3.50;99.90
23081;DHT22;11708;50.570;8.532;2022-12-18T18:19:21;-3.50;99.90
23081;DHT22;11708;50.570;8.532;2022-12-18T18:21:49;-3.50;99.90
23081;DHT22;11708;50.570;8.532;2022-12-18T18:24:18;-3.50;99.90
23081;DHT22;11708;50.570;8.532;2022-12-18T18:26:47;-3.50;99.90
23081;DHT22;11708;50.570;8.532;2022-12-18T18:29:18;-3.50;99.90
23081;DHT22;11708;50.570;8.532;2022-12-18T18:31:45;-3.50;99.90
23081;DHT22;11708;50.570;8.532;2022-12-18T18:34:15;-3.50;99.90
23081;DHT22;11708;50.570;8.532;2022-12-18T18:36:42;-3.50;99.90
23081;DHT22;11708;50.570;8.532;2022-12-18T18:39:08;-3.50;99.90
23081;DHT22;11708;50.570;8.532;2022-12-18T18:41:34;-3.50;99.90
23081;DHT22;11708;50.570;8.532;2022-12-18T18:44:00;-3.50;99.90
23081;DHT22;11708;50.570;8.532;2022-12-18T18:48:52;-3.60;99.90
23081;DHT22;11708;50.570;8.532;2022-12-18T18:53:48;-3.50;99.90
23081;DHT22;11708;50.570;8.532;2022-12-18T18:56:16;-4.20;99.90
23081;DHT22;11708;50.570;8.532;2022-12-18T19:01:13;-3.70;99.90
23081;DHT22;11708;50.570;8.532;2022-12-18T19:06:07;-3.50;99.90
23081;DHT22;11708;50.570;8.532;2022-12-18T19:08:36;-3.50;99.90
23081;DHT22;11708;50.570;8.532;2022-12-18T19:11:03;-3.40;99.90
23081;DHT22;11708;50.570;8.532;2022-12-18T19:13:32;-1.50;99.90
23081;DHT22;11708;50.570;8.532;2022-12-18T19:16:07;-3.40;99.90
23081;DHT22;11708;50.570;8.532;2022-12-18T19:21:04;-3.40;99.90
23081;DHT22;11708;50.570;8.532;2022-12-18T19:23:31;-3.10;99.90
23081;DHT22;11708;50.570;8.532;2022-12-18T19:26:05;-3.40;99.90
23081;DHT22;11708;50.570;8.532;2022-12-18T19:31:03;-3.30;99.90
23081;DHT22;11708;50.570;8.532;2022-12-18T19:33:31;-3.30;99.90
23081;DHT22;11708;50.570;8.532;2022-12-18T20:00:20;-3.10;99.90
23081;DHT22;11708;50.570;8.532;2022-12-18T20:02:45;-3.00;99.90
23081;DHT22;11708;50.570;8.532;2022-12-18T20:05:12;-3.10;99.90
23081;DHT22;11708;50.570;8.532;2022-12-18T20:07:38;-3.20;99.90
23081;DHT22;11708;50.570;8.532;2022-12-18T20:10:10;-3.10;99.90
23081;DHT22;11708;50.570;8.532;2022-12-18T20:22:23;-3.00;99.90
23081;DHT22;11708;50.570;8.532;2022-12-18T20:24:49;-0.50;99.90
23081;DHT22;11708;50.570;8.532;2022-12-18T20:32:08;-2.90;99.90
23081;DHT22;11708;50.570;8.532;2022-12-18T20:34:34;-3.40;99.90
23081;DHT22;11708;50.570;8.532;2022-12-18T20:36:59;-2.90;99.90
23081;DHT22;11708;50.570;8.532;2022-12-18T20:41:52;-2.70;99.90